Time;durP1;ratioP1;P1;durP2;ratioP2;P2;SDS_P1;SDS_P2;PMS_P1;PMS_P2;Temp;Humidity;BMP_temperature;BMP_pressure;BME280_temperature;BME280_humidity;BME280_pressure;Samples;Min_cycle;Max_cycle;Signal;HPM_P1;HPM_P2
2023/08/31 00:01:37;;;;;;;4.18;2.95;;;;;;;13.45;87.58;97439.97;5029784;28;20556;-81
2023/08/31 00:04:07;;;;;;;5.30;3.58;;;;;;;13.45;87.22;97448.94;5028363;28;20224;-81
2023/08/31 00:06:33;;;;;;;4.33;3.33;;;;;;;13.53;87.16;97441.50;5042868;28;20264;-80
2023/08/31 00:09:00;;;;;;;4.23;3.30;;;;;;;13.41;86.99;97442.31;5040274;28;20552;-81
2023/08/31 00:11:27;;;;;;;3.47;3.10;;;;;;;13.50;86.64;97445.53;5034344;28;21122;-80
2023/08/31 00:13:54;;;;;;;3.63;2.93;;;;;;;13.43;87.00;97437.47;5029152;28;20494;-81
2023/08/31 00:16:26;;;;;;;3.77;3.13;;;;;;;13.40;86.46;97435.22;5036966;28;21086;-80
2023/08/31 00:18:54;;;;;;;3.72;3.17;;;;;;;13.41;86.83;97444.22;5028356;28;20453;-80
2023/08/31 00:21:22;;;;;;;4.07;3.63;;;;;;;13.32;86.92;97435.56;5032239;28;20566;-81
2023/08/31 00:23:48;;;;;;;3.43;3.13;;;;;;;13.36;86.69;97439.47;5034940;28;20498;-81
2023/08/31 00:26:15;;;;;;;5.97;3.57;;;;;;;13.38;86.36;97453.66;5030708;28;20500;-80
2023/08/31 00:28:44;;;;;;;3.23;2.87;;;;;;;13.31;86.53;97447.53;5035759;28;20531;-80
2023/08/31 00:31:10;;;;;;;3.63;3.30;;;;;;;13.19;86.85;97452.09;5038718;28;20459;-80
2023/08/31 00:33:39;;;;;;;3.67;3.37;;;;;;;13.10;87.03;97461.59;5039340;28;20494;-80
2023/08/31 00:36:06;;;;;;;3.43;3.10;;;;;;;13.03;87.08;97460.88;5043975;28;20893;-81
2023/08/31 00:38:33;;;;;;;3.83;3.35;;;;;;;13.09;87.04;97458.06;5032119;28;20518;-80
2023/08/31 00:40:59;;;;;;;3.58;3.00;;;;;;;12.91;87.72;97463.56;5029591;28;20288;-81
2023/08/31 00:43:27;;;;;;;3.60;2.80;;;;;;;12.87;87.67;97486.00;5031770;28;20228;-80
2023/08/31 00:45:57;;;;;;;5.43;3.47;;;;;;;12.97;87.11;97469.97;5038372;28;20747;-80
2023/08/31 00:48:24;;;;;;;3.45;3.00;;;;;;;12.91;87.71;97465.47;5026596;28;20452;-80
2023/08/31 00:50:53;;;;;;;3.70;3.20;;;;;;;12.87;87.96;97473.25;5033278;28;20236;-80
2023/08/31 00:53:20;;;;;;;4.10;3.53;;;;;;;12.83;87.88;97472.03;5035385;28;20550;-81
2023/08/31 00:55:47;;;;;;;3.50;3.20;;;;;;;12.88;87.54;97471.34;5034573;28;20648;-80
2023/08/31 00:58:14;;;;;;;4.03;3.20;;;;;;;12.87;87.89;97469.69;5036352;28;21175;-80
2023/08/31 01:00:45;;;;;;;3.15;2.90;;;;;;;12.91;87.51;97463.56;5037797;28;20284;-81
2023/08/31 01:03:14;;;;;;;5.57;3.92;;;;;;;12.96;88.10;97469.16;5034781;28;20332;-80
2023/08/31 01:05:48;;;;;;;4.65;3.35;;;;;;;12.93;88.31;97460.63;5044659;28;20300;-80
2023/08/31 01:08:29;;;;;;;5.18;4.50;;;;;;;13.03;88.32;97464.41;5034400;28;20220;-81
2023/08/31 01:11:04;;;;;;;3.72;3.42;;;;;;;12.91;87.80;97454.59;5045018;28;20209;-80
2023/08/31 01:13:32;;;;;;;5.70;4.13;;;;;;;13.00;87.69;97458.63;5049378;28;20320;-81
2023/08/31 01:16:03;;;;;;;4.13;3.67;;;;;;;12.86;87.73;97460.72;5038492;28;20848;-80
2023/08/31 01:18:30;;;;;;;4.27;3.73;;;;;;;12.88;87.87;97453.16;5031139;28;20593;-80
2023/08/31 01:21:03;;;;;;;4.20;3.90;;;;;;;13.01;86.99;97454.84;5044899;28;20456;-80
2023/08/31 01:23:52;;;;;;;4.35;4.00;;;;;;;12.93;87.08;97458.75;5043979;28;20995;-80
2023/08/31 01:26:19;;;;;;;4.32;3.92;;;;;;;12.85;87.50;97458.22;5046192;28;20205;-80
2023/08/31 01:28:46;;;;;;;5.15;3.80;;;;;;;12.87;87.63;97465.09;5044751;28;20308;-80
2023/08/31 01:31:13;;;;;;;3.80;3.50;;;;;;;12.90;87.37;97467.34;5043111;28;20201;-80
2023/08/31 01:33:39;;;;;;;4.05;3.60;;;;;;;12.96;87.01;97462.88;5042708;28;20552;-81
2023/08/31 01:36:11;;;;;;;4.88;4.47;;;;;;;12.93;87.24;97471.50;5044295;28;20210;-80
2023/08/31 01:38:41;;;;;;;5.03;4.00;;;;;;;13.01;86.17;97469.25;5033972;28;20285;-79
2023/08/31 01:41:14;;;;;;;3.97;3.65;;;;;;;13.13;86.49;97472.00;5033350;28;20240;-80
2023/08/31 01:43:41;;;;;;;4.85;3.95;;;;;;;13.12;85.90;97481.22;5036797;28;20249;-80
2023/08/31 01:46:08;;;;;;;5.22;4.00;;;;;;;13.01;86.56;97484.72;5031695;28;20241;-80
2023/08/31 01:48:39;;;;;;;4.83;4.33;;;;;;;12.93;86.16;97491.34;5033708;28;20198;-79
2023/08/31 01:51:06;;;;;;;3.90;3.60;;;;;;;12.89;86.56;97492.84;5031536;28;20471;-80
2023/08/31 01:53:34;;;;;;;3.63;3.33;;;;;;;12.97;86.46;97491.72;5039408;28;20535;-80
2023/08/31 01:56:01;;;;;;;4.10;3.70;;;;;;;12.91;86.22;97500.78;5035399;28;20446;-80
2023/08/31 01:58:29;;;;;;;5.07;4.37;;;;;;;12.91;86.01;97496.16;5040737;28;21035;-79
2023/08/31 02:00:56;;;;;;;4.43;3.67;;;;;;;12.91;86.30;97500.78;5036033;28;20998;-80
2023/08/31 02:03:23;;;;;;;3.90;3.60;;;;;;;12.94;85.90;97497.59;5035136;28;20228;-80
2023/08/31 02:05:50;;;;;;;4.20;3.78;;;;;;;12.98;85.54;97501.50;5041046;28;20455;-80
2023/08/31 02:08:17;;;;;;;4.88;4.38;;;;;;;13.02;85.47;97502.69;5036572;28;20197;-80
2023/08/31 02:10:44;;;;;;;3.70;3.35;;;;;;;13.01;85.77;97496.41;5030060;28;20609;-80
2023/08/31 02:13:11;;;;;;;3.85;3.55;;;;;;;13.12;85.10;97500.25;5036133;28;20217;-80
2023/08/31 02:15:39;;;;;;;4.30;3.87;;;;;;;13.12;85.28;97489.38;5039120;28;20329;-80
2023/08/31 02:18:08;;;;;;;3.50;3.20;;;;;;;13.07;85.45;97491.97;5032328;28;20445;-80
2023/08/31 02:20:34;;;;;;;6.23;3.40;;;;;;;13.16;85.40;97493.31;5034114;28;20557;-80
2023/08/31 02:23:01;;;;;;;4.00;3.70;;;;;;;13.16;85.50;97498.75;5031682;28;20570;-80
2023/08/31 02:25:28;;;;;;;3.80;3.50;;;;;;;13.11;86.24;97491.25;5033937;28;20219;-80
2023/08/31 02:27:55;;;;;;;3.70;3.40;;;;;;;13.21;85.80;97500.78;5035999;28;20864;-80
2023/08/31 02:30:22;;;;;;;3.78;3.47;;;;;;;13.23;86.63;97504.09;5042649;28;20464;-80
2023/08/31 02:32:50;;;;;;;3.70;3.40;;;;;;;13.39;85.91;97508.84;5037622;28;20212;-80
2023/08/31 02:35:17;;;;;;;10.40;3.90;;;;;;;13.37;85.12;97500.94;5037729;28;20283;-80
2023/08/31 02:37:44;;;;;;;5.77;3.20;;;;;;;13.34;85.46;97501.38;5035867;28;20473;-80
2023/08/31 02:40:12;;;;;;;3.63;3.33;;;;;;;13.28;85.58;97507.78;5029759;28;20475;-79
2023/08/31 02:42:38;;;;;;;3.60;3.30;;;;;;;13.21;85.96;97496.19;5037996;28;20499;-80
2023/08/31 02:45:06;;;;;;;3.57;3.27;;;;;;;13.35;85.63;97516.63;5036897;28;20580;-80
2023/08/31 02:47:33;;;;;;;4.22;3.83;;;;;;;13.35;85.58;97503.03;5036965;28;20468;-80
2023/08/31 02:50:01;;;;;;;3.40;3.10;;;;;;;13.31;85.60;97511.94;5036519;28;20288;-80
2023/08/31 02:52:28;;;;;;;3.45;3.15;;;;;;;13.21;85.95;97517.91;5039361;28;20224;-80
2023/08/31 02:54:55;;;;;;;3.75;3.45;;;;;;;13.09;86.59;97525.16;5048572;28;20320;-80
2023/08/31 02:57:21;;;;;;;2.88;2.67;;;;;;;13.25;86.17;97524.56;5034564;28;20198;-79
2023/08/31 02:59:50;;;;;;;3.20;3.00;;;;;;;13.20;86.51;97521.69;5034161;28;20201;-80
2023/08/31 03:02:17;;;;;;;3.10;2.80;;;;;;;13.27;86.33;97522.44;5031357;28;20495;-80
2023/08/31 03:04:44;;;;;;;3.60;3.30;;;;;;;13.15;86.64;97521.53;5049073;28;20207;-80
2023/08/31 03:07:15;;;;;;;3.70;3.35;;;;;;;13.19;86.35;97520.03;5042734;28;20229;-80
2023/08/31 03:09:41;;;;;;;3.58;3.28;;;;;;;13.22;86.48;97519.56;5042873;28;20194;-80
2023/08/31 03:12:08;;;;;;;4.07;3.05;;;;;;;13.10;86.95;97526.81;5031311;28;20201;-80
2023/08/31 03:14:35;;;;;;;4.50;2.90;;;;;;;13.08;86.91;97518.06;5039779;28;20312;-80
2023/08/31 03:17:03;;;;;;;3.10;2.80;;;;;;;13.07;87.14;97527.28;5040847;28;20967;-80
2023/08/31 03:19:29;;;;;;;4.20;3.57;;;;;;;13.06;87.65;97521.00;5031481;28;20891;-80
2023/08/31 03:21:56;;;;;;;4.47;3.37;;;;;;;13.04;87.62;97533.16;5033653;28;20486;-80
2023/08/31 03:24:24;;;;;;;4.33;3.37;;;;;;;13.02;87.38;97524.41;5036413;28;21005;-80
2023/08/31 03:26:51;;;;;;;5.68;3.70;;;;;;;13.09;87.02;97530.59;5041994;28;20912;-80
2023/08/31 03:29:18;;;;;;;3.05;2.85;;;;;;;12.91;87.68;97538.78;5033856;28;20315;-79
2023/08/31 03:31:45;;;;;;;3.95;3.50;;;;;;;12.99;87.43;97528.44;5030239;28;20653;-80
2023/08/31 03:34:12;;;;;;;4.43;3.55;;;;;;;12.95;87.40;97534.56;5032859;28;20264;-80
2023/08/31 03:36:39;;;;;;;5.13;3.67;;;;;;;12.84;88.08;97538.03;5033486;28;20319;-80
2023/08/31 03:39:05;;;;;;;3.78;3.47;;;;;;;12.72;88.42;97544.25;5036977;28;20217;-79
2023/08/31 03:41:35;;;;;;;3.53;3.20;;;;;;;12.68;88.34;97544.91;5040739;28;20201;-80
2023/08/31 03:44:02;;;;;;;4.20;3.42;;;;;;;12.77;87.77;97538.97;5040972;28;20690;-80
2023/08/31 03:46:29;;;;;;;3.53;3.23;;;;;;;12.82;87.46;97541.00;5034202;28;20255;-79
2023/08/31 03:48:56;;;;;;;4.30;3.00;;;;;;;12.82;87.05;97540.16;5041621;28;20833;-79
2023/08/31 03:51:23;;;;;;;3.55;3.28;;;;;;;12.87;86.96;97551.19;5036354;28;20462;-79
2023/08/31 03:53:49;;;;;;;4.05;3.08;;;;;;;12.92;87.00;97543.16;5042451;28;20600;-80
2023/08/31 03:56:16;;;;;;;4.28;3.85;;;;;;;12.95;87.07;97540.00;5032568;28;20320;-80
2023/08/31 03:58:44;;;;;;;3.53;3.23;;;;;;;12.82;87.35;97543.72;5032442;28;20198;-80
2023/08/31 04:01:12;;;;;;;3.70;3.40;;;;;;;12.73;87.44;97554.03;5035026;28;20452;-80
2023/08/31 04:03:39;;;;;;;3.60;3.30;;;;;;;12.83;87.36;97550.81;5039179;28;21420;-80
2023/08/31 04:06:06;;;;;;;3.03;2.80;;;;;;;12.68;87.64;97551.19;5039580;28;20211;-80
2023/08/31 04:08:33;;;;;;;3.55;3.20;;;;;;;12.72;87.24;97563.25;5040486;28;20197;-80
2023/08/31 04:10:59;;;;;;;3.70;3.40;;;;;;;12.78;86.55;97565.06;5036665;28;20229;-80
2023/08/31 04:13:26;;;;;;;3.33;3.00;;;;;;;12.86;86.01;97552.22;5036872;28;20569;-80
2023/08/31 04:15:56;;;;;;;4.05;3.65;;;;;;;12.96;85.77;97558.78;5038093;28;20221;-80
2023/08/31 04:18:23;;;;;;;5.00;3.00;;;;;;;12.91;85.63;97555.09;5039217;28;20199;-80
2023/08/31 04:20:51;;;;;;;3.25;2.95;;;;;;;12.89;85.65;97557.22;5042933;28;20581;-79
2023/08/31 04:23:19;;;;;;;3.47;2.70;;;;;;;12.93;85.44;97558.41;5041976;28;20225;-79
2023/08/31 04:25:47;;;;;;;4.65;3.30;;;;;;;12.87;85.76;97560.16;5041552;28;20653;-80
2023/08/31 04:28:14;;;;;;;4.88;2.90;;;;;;;12.88;85.43;97563.69;5028572;28;20362;-79
2023/08/31 04:30:41;;;;;;;3.50;2.60;;;;;;;12.88;85.57;97556.38;5030334;28;20232;-79
2023/08/31 04:33:09;;;;;;;3.42;3.13;;;;;;;12.85;86.16;97572.28;5050617;28;20275;-80
2023/08/31 04:35:36;;;;;;;3.67;3.03;;;;;;;12.78;86.24;97569.66;5041889;28;20331;-80
2023/08/31 04:38:03;;;;;;;3.65;3.35;;;;;;;12.83;86.18;97577.13;5034815;28;20224;-80
2023/08/31 04:40:30;;;;;;;3.80;2.90;;;;;;;12.85;86.16;97578.56;5035213;28;20265;-80
2023/08/31 04:42:57;;;;;;;3.90;3.33;;;;;;;12.92;86.02;97589.34;5035407;28;20225;-80
2023/08/31 04:45:24;;;;;;;4.65;3.45;;;;;;;12.77;86.59;97587.00;5031394;28;20222;-80
2023/08/31 04:47:51;;;;;;;3.47;3.17;;;;;;;12.79;86.41;97591.16;5036403;28;20197;-80
2023/08/31 04:50:19;;;;;;;3.50;3.00;;;;;;;12.83;86.20;97586.09;5030264;28;20328;-79
2023/08/31 04:52:47;;;;;;;3.17;2.88;;;;;;;12.71;86.83;97588.75;5042968;28;20224;-79
2023/08/31 04:55:14;;;;;;;4.80;3.25;;;;;;;12.75;86.41;97589.13;5036744;28;20224;-80
2023/08/31 04:57:41;;;;;;;3.60;3.30;;;;;;;12.76;86.81;97585.34;5048025;28;20569;-80
2023/08/31 05:00:09;;;;;;;4.22;3.40;;;;;;;12.75;86.63;97579.09;5040971;28;20530;-80
2023/08/31 05:02:36;;;;;;;4.10;3.83;;;;;;;12.66;86.91;97591.34;5031713;28;20221;-80
2023/08/31 05:05:04;;;;;;;4.47;3.25;;;;;;;12.77;86.30;97595.97;5037637;28;20248;-80
2023/08/31 05:07:32;;;;;;;3.78;3.25;;;;;;;12.79;86.04;97593.03;5038034;28;20561;-80
2023/08/31 05:09:59;;;;;;;4.03;3.00;;;;;;;12.70;86.03;97606.09;5040750;28;20305;-81
2023/08/31 05:12:26;;;;;;;5.13;3.20;;;;;;;12.85;86.04;97600.28;5040025;28;20311;-80
2023/08/31 05:14:53;;;;;;;3.90;3.60;;;;;;;12.85;86.04;97599.47;5038293;28;20252;-80
2023/08/31 05:17:20;;;;;;;3.92;3.63;;;;;;;12.85;85.89;97604.88;5038722;28;20213;-80
2023/08/31 05:19:47;;;;;;;3.80;3.08;;;;;;;12.81;85.88;97607.22;5032366;28;20575;-81
2023/08/31 05:22:13;;;;;;;3.72;3.17;;;;;;;12.67;86.14;97598.38;5022382;28;20307;-80
2023/08/31 05:24:42;;;;;;;3.65;3.35;;;;;;;12.76;85.91;97613.34;5019664;28;20231;-80
2023/08/31 05:27:09;;;;;;;3.05;2.85;;;;;;;12.84;85.55;97614.09;5030171;28;20625;-81
2023/08/31 05:29:35;;;;;;;4.13;3.10;;;;;;;12.89;85.75;97622.41;5028097;28;20657;-83
2023/08/31 05:32:02;;;;;;;4.63;2.85;;;;;;;12.93;86.22;97629.03;5027665;28;20470;-82
2023/08/31 05:34:30;;;;;;;3.47;3.15;;;;;;;12.91;86.13;97634.69;5032956;28;20213;-82
2023/08/31 05:36:57;;;;;;;4.50;3.17;;;;;;;13.00;85.63;97629.75;5038934;28;20185;-81
2023/08/31 05:39:23;;;;;;;4.20;3.90;;;;;;;12.96;85.88;97631.28;5037470;28;20205;-80
2023/08/31 05:41:52;;;;;;;3.72;3.15;;;;;;;12.96;85.34;97639.44;5032543;28;20301;-82
2023/08/31 05:44:18;;;;;;;3.55;3.05;;;;;;;12.93;85.41;97635.28;5032855;28;20202;-79
2023/08/31 05:46:45;;;;;;;2.47;2.38;;;;;;;12.95;85.51;97638.63;5028171;28;20198;-81
2023/08/31 05:49:12;;;;;;;3.10;2.75;;;;;;;12.98;84.94;97634.63;5032422;28;20389;-80
2023/08/31 05:51:39;;;;;;;2.90;2.60;;;;;;;12.91;85.11;97642.00;5037691;28;20555;-79
2023/08/31 05:54:10;;;;;;;3.20;2.90;;;;;;;12.91;85.42;97636.56;5031385;28;20198;-80
2023/08/31 05:56:37;;;;;;;3.33;3.05;;;;;;;13.05;85.21;97644.31;5026822;28;20291;-79
2023/08/31 05:59:05;;;;;;;3.30;3.00;;;;;;;13.22;84.64;97633.72;5028054;28;20316;-79
2023/08/31 06:01:32;;;;;;;3.20;2.90;;;;;;;13.30;84.62;97643.44;5033322;28;20211;-82
2023/08/31 06:03:59;;;;;;;3.33;2.95;;;;;;;13.29;84.54;97644.50;5036778;28;20435;-80
2023/08/31 06:06:26;;;;;;;3.20;2.70;;;;;;;13.33;84.59;97646.50;5031422;28;20285;-81
2023/08/31 06:08:53;;;;;;;3.50;3.20;;;;;;;13.33;84.50;97645.69;5038470;28;20456;-81
2023/08/31 06:11:21;;;;;;;4.30;3.50;;;;;;;13.24;84.91;97652.50;5038570;28;20356;-81
2023/08/31 06:13:47;;;;;;;3.63;3.30;;;;;;;13.27;85.10;97649.34;5034877;28;20480;-80
2023/08/31 06:16:15;;;;;;;3.80;3.40;;;;;;;13.11;85.47;97653.47;5036596;28;20836;-81
2023/08/31 06:18:43;;;;;;;3.55;3.22;;;;;;;13.37;86.72;97661.31;5042133;28;20455;-80
2023/08/31 06:21:10;;;;;;;4.37;3.83;;;;;;;13.58;85.09;97654.56;5037152;28;20227;-82
2023/08/31 06:23:36;;;;;;;4.53;3.92;;;;;;;13.44;85.19;97659.34;5038329;28;20459;-79
2023/08/31 06:26:04;;;;;;;7.35;3.90;;;;;;;13.33;85.39;97661.97;5029830;28;20198;-84
2023/08/31 06:28:31;;;;;;;6.03;3.95;;;;;;;13.20;86.06;97682.03;5034978;28;20218;-84
2023/08/31 06:30:57;;;;;;;4.53;4.10;;;;;;;13.18;86.42;97678.69;5031913;28;20792;-83
2023/08/31 06:33:26;;;;;;;4.78;4.38;;;;;;;12.97;87.32;97674.53;5035408;28;20858;-77
2023/08/31 06:35:52;;;;;;;4.85;4.25;;;;;;;13.29;87.49;97683.38;5031630;28;20340;-81
2023/08/31 06:38:19;;;;;;;5.27;3.90;;;;;;;14.11;84.99;97673.63;5032299;28;20205;-77
2023/08/31 06:40:47;;;;;;;3.93;3.50;;;;;;;14.81;81.33;97682.94;5044793;28;20469;-77
2023/08/31 06:43:14;;;;;;;4.73;3.00;;;;;;;15.36;78.04;97689.59;5035353;28;20529;-78
2023/08/31 06:45:41;;;;;;;4.07;2.73;;;;;;;16.17;75.38;97682.16;5033962;28;20516;-78
2023/08/31 06:48:08;;;;;;;3.80;3.10;;;;;;;16.31;73.18;97690.84;5036069;28;20444;-78
2023/08/31 06:50:36;;;;;;;4.53;2.97;;;;;;;16.13;73.82;97690.00;5026884;28;20472;-77
2023/08/31 06:53:04;;;;;;;3.20;2.80;;;;;;;15.79;75.87;97689.13;5031742;28;20466;-78
2023/08/31 06:55:31;;;;;;;4.23;2.70;;;;;;;15.75;74.96;97698.88;5030229;28;20490;-75
2023/08/31 06:57:58;;;;;;;3.37;2.30;;;;;;;15.42;74.91;97696.81;5032459;28;20568;-82
2023/08/31 07:00:25;;;;;;;5.13;2.47;;;;;;;15.27;75.82;97701.13;5024356;28;20464;-81
2023/08/31 07:02:53;;;;;;;4.40;2.43;;;;;;;14.94;76.40;97699.06;5031322;28;20487;-81
2023/08/31 07:05:25;;;;;;;2.60;2.30;;;;;;;15.05;75.41;97693.56;5031107;28;20605;-80
2023/08/31 07:07:54;;;;;;;3.83;2.60;;;;;;;15.09;75.13;97693.91;5028444;28;20463;-80
2023/08/31 07:10:21;;;;;;;3.33;2.30;;;;;;;14.92;75.24;97693.00;5034830;28;20461;-82
2023/08/31 07:12:48;;;;;;;3.70;2.40;;;;;;;15.11;75.06;97698.06;5040649;28;20561;-82
2023/08/31 07:15:15;;;;;;;2.70;2.40;;;;;;;15.38;74.87;97703.81;5036698;28;20464;-84
2023/08/31 07:17:42;;;;;;;2.63;2.00;;;;;;;15.78;72.51;97705.72;5033611;28;20443;-81
2023/08/31 07:20:10;;;;;;;3.87;2.30;;;;;;;16.08;71.48;97702.75;5031058;28;20556;-81
2023/08/31 07:22:38;;;;;;;3.20;2.57;;;;;;;16.26;71.23;97710.69;5034598;28;20511;-81
2023/08/31 07:25:08;;;;;;;5.10;2.20;;;;;;;16.59;68.43;97712.63;5043242;28;20570;-80
2023/08/31 07:27:34;;;;;;;4.27;2.30;;;;;;;17.33;65.77;97712.38;5024761;28;20452;-84
2023/08/31 07:30:03;;;;;;;2.57;2.10;;;;;;;18.01;62.94;97721.97;5023079;28;20689;-81
2023/08/31 07:32:29;;;;;;;3.23;2.07;;;;;;;18.74;62.05;97715.03;5027875;28;20480;-82
2023/08/31 07:34:56;;;;;;;2.53;2.30;;;;;;;19.09;58.47;97722.69;5031628;28;20888;-82
2023/08/31 07:37:23;;;;;;;2.70;2.00;;;;;;;19.61;57.76;97724.63;5028550;28;20474;-82
2023/08/31 07:39:50;;;;;;;6.57;2.37;;;;;;;20.01;56.51;97713.78;5033028;28;20459;-82
2023/08/31 07:42:18;;;;;;;2.43;2.13;;;;;;;20.30;54.01;97736.09;5038973;28;20507;-81
2023/08/31 07:44:45;;;;;;;3.53;2.30;;;;;;;21.21;51.73;97732.59;5031302;28;20567;-82
2023/08/31 07:47:12;;;;;;;4.83;2.37;;;;;;;21.74;51.19;97735.75;5028417;28;20459;-83
2023/08/31 07:49:39;;;;;;;2.33;2.03;;;;;;;22.47;48.65;97730.41;5030554;28;20515;-80
2023/08/31 07:52:06;;;;;;;4.17;2.10;;;;;;;22.40;47.81;97728.00;5022492;28;20483;-81
2023/08/31 07:54:33;;;;;;;3.30;1.80;;;;;;;22.10;47.14;97734.47;5030153;28;20460;-81
2023/08/31 07:57:00;;;;;;;3.00;1.90;;;;;;;21.02;50.10;97734.25;5026840;28;20495;-81
2023/08/31 07:59:29;;;;;;;3.53;2.10;;;;;;;20.09;52.73;97735.25;5018191;28;20463;-81
2023/08/31 08:01:55;;;;;;;3.13;2.10;;;;;;;20.55;52.06;97737.25;5027487;28;20477;-81
2023/08/31 08:04:23;;;;;;;2.83;2.10;;;;;;;19.86;50.21;97743.94;5020887;28;20485;-80
2023/08/31 08:06:50;;;;;;;2.50;2.30;;;;;;;20.16;52.93;97731.38;5030259;28;20499;-80
2023/08/31 08:09:17;;;;;;;2.73;2.03;;;;;;;20.06;48.51;97724.78;5018902;28;20474;-80
2023/08/31 08:11:44;;;;;;;2.17;1.97;;;;;;;19.59;51.05;97732.31;5032067;28;20577;-79
2023/08/31 08:14:11;;;;;;;2.97;2.13;;;;;;;19.63;51.13;97727.94;5032161;28;20545;-80
2023/08/31 08:16:39;;;;;;;3.33;2.23;;;;;;;19.40;51.34;97735.50;5036931;28;20489;-81
2023/08/31 08:19:07;;;;;;;3.00;1.80;;;;;;;18.95;53.24;97738.75;5028193;28;20457;-80
2023/08/31 08:21:34;;;;;;;2.67;2.20;;;;;;;18.34;55.12;97754.66;5032377;28;20475;-80
2023/08/31 08:24:00;;;;;;;2.00;1.80;;;;;;;18.02;56.47;97751.03;5032319;28;21041;-80
2023/08/31 08:26:27;;;;;;;3.03;2.10;;;;;;;17.39;57.37;97709.47;5031188;28;20456;-79
2023/08/31 08:28:54;;;;;;;3.97;2.10;;;;;;;17.77;58.94;97751.56;5036257;28;20494;-79
2023/08/31 08:31:21;;;;;;;3.70;2.43;;;;;;;17.44;58.36;97745.09;5029897;28;20569;-82
2023/08/31 08:33:49;;;;;;;2.33;2.03;;;;;;;17.15;57.06;97757.28;5031803;28;20460;-78
2023/08/31 08:36:16;;;;;;;3.50;2.13;;;;;;;17.03;57.97;97759.25;5032038;28;20599;-78
2023/08/31 08:38:42;;;;;;;3.67;2.43;;;;;;;17.02;58.60;97757.59;5030575;28;20518;-78
2023/08/31 08:41:11;;;;;;;2.40;1.87;;;;;;;17.16;58.79;97756.19;5029371;28;20563;-75
2023/08/31 08:43:38;;;;;;;2.17;1.97;;;;;;;16.90;59.40;97763.16;5029307;28;20476;-78
2023/08/31 08:46:06;;;;;;;3.50;2.17;;;;;;;16.60;61.23;97766.19;5037063;28;20991;-78
2023/08/31 08:48:33;;;;;;;4.97;2.60;;;;;;;17.24;58.29;97768.59;5036266;28;20459;-77
2023/08/31 08:51:03;;;;;;;6.83;2.23;;;;;;;17.86;55.42;97763.72;5029575;28;21023;-78
2023/08/31 08:53:30;;;;;;;2.53;2.33;;;;;;;18.58;52.71;97760.63;5029861;28;20471;-78
2023/08/31 08:55:57;;;;;;;3.23;2.30;;;;;;;19.01;48.82;97767.06;5037506;28;20475;-78
2023/08/31 08:58:24;;;;;;;2.63;1.87;;;;;;;19.16;48.96;97761.69;5028824;28;20846;-78
2023/08/31 09:00:51;;;;;;;3.67;1.97;;;;;;;20.32;46.53;97769.66;5029173;28;20585;-78
2023/08/31 09:03:18;;;;;;;3.67;1.90;;;;;;;19.95;46.52;97758.00;5025363;28;20567;-78
2023/08/31 09:05:45;;;;;;;3.03;1.60;;;;;;;20.36;46.77;97767.19;5027874;28;20491;-80
2023/08/31 09:08:15;;;;;;;2.53;2.00;;;;;;;20.66;45.94;97772.75;5028703;28;20447;-82
2023/08/31 09:10:43;;;;;;;2.17;1.90;;;;;;;19.94;45.71;97770.91;5027023;28;20528;-83
2023/08/31 09:13:11;;;;;;;3.93;2.10;;;;;;;19.45;48.17;97771.19;5029237;28;21035;-72
2023/08/31 09:15:43;;;;;;;2.80;1.80;;;;;;;19.25;47.77;97782.03;5026397;28;20584;-77
2023/08/31 09:18:15;;;;;;;3.13;2.03;;;;;;;19.46;45.83;97783.00;5025027;28;20461;-78
2023/08/31 09:20:46;;;;;;;2.00;1.60;;;;;;;18.78;48.35;97781.97;5031926;28;20448;-78
2023/08/31 09:23:15;;;;;;;5.80;2.37;;;;;;;18.31;49.44;97781.75;5033727;28;20503;-78
2023/08/31 09:25:43;;;;;;;2.30;2.10;;;;;;;17.83;50.65;97757.94;5035363;28;20456;-78
2023/08/31 09:28:10;;;;;;;2.23;1.90;;;;;;;17.56;51.20;97790.66;5033803;28;20456;-78
2023/08/31 09:30:37;;;;;;;2.20;2.00;;;;;;;17.27;52.08;97799.00;5034557;28;20470;-77
2023/08/31 09:33:05;;;;;;;2.00;1.53;;;;;;;18.38;49.94;97788.69;5039534;28;20511;-77
2023/08/31 09:35:32;;;;;;;2.87;2.20;;;;;;;19.43;45.61;97784.38;5031471;28;20452;-79
2023/08/31 09:37:59;;;;;;;2.83;2.10;;;;;;;20.76;43.96;97781.03;5030252;28;20534;-78
2023/08/31 09:40:27;;;;;;;2.37;2.17;;;;;;;21.61;40.54;97770.22;5032725;28;20878;-78
2023/08/31 09:42:54;;;;;;;2.57;2.10;;;;;;;22.07;40.81;97779.19;5032111;28;20456;-78
2023/08/31 09:45:26;;;;;;;3.03;2.00;;;;;;;22.37;40.14;97771.88;5038929;28;20458;-78
2023/08/31 09:47:53;;;;;;;2.67;1.87;;;;;;;22.40;39.95;97779.56;5035438;28;20446;-78
2023/08/31 09:50:21;;;;;;;2.50;1.83;;;;;;;22.07;39.44;97784.69;5039720;28;20487;-79
2023/08/31 09:52:49;;;;;;;2.30;2.00;;;;;;;22.29;39.01;97783.47;5029468;28;20475;-79
2023/08/31 09:55:18;;;;;;;2.73;2.07;;;;;;;21.61;39.20;97783.16;5036223;28;20451;-78
2023/08/31 09:57:46;;;;;;;1.70;1.60;;;;;;;21.19;40.79;97772.47;5042129;28;20486;-78
2023/08/31 10:00:15;;;;;;;2.37;1.97;;;;;;;21.39;39.18;97789.84;5038570;28;20464;-79
2023/08/31 10:02:43;;;;;;;3.60;2.17;;;;;;;21.83;37.67;97786.41;5036421;28;20480;-79
2023/08/31 10:05:10;;;;;;;3.20;2.20;;;;;;;21.89;37.47;97781.69;5037401;28;20452;-79
2023/08/31 10:07:37;;;;;;;2.70;1.73;;;;;;;22.81;38.04;97776.53;5031764;28;20457;-78
2023/08/31 10:10:04;;;;;;;2.40;1.80;;;;;;;23.95;35.16;97774.91;5035901;28;20544;-79
2023/08/31 10:12:31;;;;;;;2.30;1.90;;;;;;;24.33;34.60;97780.53;5034767;28;20480;-79
2023/08/31 10:15:00;;;;;;;3.50;1.80;;;;;;;23.57;33.04;97778.66;5042023;28;20979;-79
2023/08/31 10:17:27;;;;;;;2.97;2.07;;;;;;;22.65;35.79;97789.59;5038416;28;20573;-79
2023/08/31 10:19:55;;;;;;;2.43;1.80;;;;;;;22.71;37.09;97783.78;5034926;28;20462;-79
2023/08/31 10:22:22;;;;;;;3.00;2.00;;;;;;;21.88;38.66;97789.13;5041338;28;20506;-79
2023/08/31 10:24:59;;;;;;;2.53;1.70;;;;;;;20.88;39.59;97777.16;5041127;28;20469;-79
2023/08/31 10:27:27;;;;;;;2.27;1.90;;;;;;;20.89;41.26;97793.41;5041960;28;20459;-78
2023/08/31 10:29:54;;;;;;;3.00;2.10;;;;;;;20.81;42.16;97793.94;5034044;28;20530;-79
2023/08/31 10:32:22;;;;;;;2.53;1.80;;;;;;;20.52;40.47;97790.88;5048885;28;20820;-77
2023/08/31 10:35:09;;;;;;;2.63;1.73;;;;;;;20.09;39.49;97794.88;5039648;28;20853;-78
2023/08/31 10:37:36;;;;;;;4.33;2.00;;;;;;;19.57;40.16;97803.13;5037120;28;20526;-78
2023/08/31 10:40:11;;;;;;;3.37;2.17;;;;;;;19.06;42.81;97800.03;5038106;28;21080;-78
2023/08/31 10:42:46;;;;;;;2.83;2.47;;;;;;;18.98;42.57;97792.25;5044805;28;20462;-78
2023/08/31 10:45:13;;;;;;;3.43;2.20;;;;;;;18.93;43.60;97794.97;5031216;28;20487;-78
2023/08/31 10:47:42;;;;;;;3.73;1.90;;;;;;;19.46;43.14;97789.34;5038366;28;21014;-78
2023/08/31 10:50:23;;;;;;;2.67;2.13;;;;;;;19.82;42.03;97795.00;5032023;28;20467;-78
2023/08/31 10:52:50;;;;;;;2.73;2.10;;;;;;;19.24;42.77;97796.84;5037660;28;20510;-78
2023/08/31 10:55:17;;;;;;;2.40;1.90;;;;;;;19.39;42.67;97796.97;5046764;28;20872;-78
2023/08/31 10:57:45;;;;;;;3.60;2.30;;;;;;;20.06;40.56;97782.50;5031273;28;20491;-78
2023/08/31 11:00:13;;;;;;;3.40;2.23;;;;;;;20.10;41.79;97782.78;5037271;28;20554;-78
2023/08/31 11:02:45;;;;;;;2.70;2.00;;;;;;;19.88;42.85;97793.94;5038410;28;20477;-78
2023/08/31 11:05:14;;;;;;;3.27;2.77;;;;;;;19.76;43.87;97787.88;5045400;28;20451;-79
2023/08/31 11:07:42;;;;;;;2.80;2.43;;;;;;;19.52;44.57;97792.09;5033594;28;20452;-78
2023/08/31 11:10:13;;;;;;;3.77;1.87;;;;;;;19.15;45.03;97803.94;5028133;28;20460;-78
2023/08/31 11:12:41;;;;;;;3.60;2.23;;;;;;;19.29;44.92;97799.63;5037832;28;20816;-78
2023/08/31 11:15:08;;;;;;;5.17;2.50;;;;;;;20.10;42.99;97789.13;5041325;28;20460;-79
2023/08/31 11:17:35;;;;;;;3.47;2.27;;;;;;;21.31;40.27;97790.38;5038518;28;20483;-79
2023/08/31 11:20:06;;;;;;;3.07;2.03;;;;;;;20.87;40.22;97781.00;5033656;28;20463;-78
2023/08/31 11:22:33;;;;;;;2.50;1.80;;;;;;;20.07;42.20;97780.56;5037280;28;20490;-79
2023/08/31 11:25:00;;;;;;;2.87;2.20;;;;;;;19.68;44.35;97780.13;5036975;28;20518;-78
2023/08/31 11:27:27;;;;;;;5.30;2.93;;;;;;;19.72;45.48;97787.56;5030509;28;20459;-78
2023/08/31 11:29:54;;;;;;;5.07;2.40;;;;;;;19.29;44.86;97777.69;5042549;28;20471;-78
2023/08/31 11:32:24;;;;;;;6.40;2.60;;;;;;;18.92;45.22;97785.91;5034139;28;20455;-79
2023/08/31 11:34:51;;;;;;;2.63;2.17;;;;;;;18.75;45.82;97785.22;5038073;28;20842;-78
2023/08/31 11:37:20;;;;;;;3.53;2.30;;;;;;;19.14;45.07;97791.31;5038349;28;20496;-78